YM Initiative — A8HX4 — position and weather

sailwx.info

Track history (hours):
 
Tides and Currents Weather Stations Pressure Air Temp Water Temp Dewpoint Dewpoint Depression Visibility Wind Speed Wind Dir Waves Ship Positions

YM Initiative

Last reported at 2015-Sep-04 07:32 UTC. Time now 2015-Sep-04 07:53 UTC.
Position N 01°19' E 104°07'.

Length 173 m; draft 7.7 m.

Type: Cargo ship. MMSI: 635961368.

Date/timePositionNaut miles runAvg speedWind from/ knotsBaromVisibWave heightAir tempDewpointWater temp
2015-Sep-04 07:32N 01°19' E 104°07'4 3.7
2015-Sep-04 06:30N 01°21' E 104°03'6 6.7
2015-Sep-04 05:32N 01°23' E 103°57'5 3.9
2015-Sep-04 04:19N 01°26' E 103°54'0 0.1
2015-Sep-03 19:32N 01°26' E 103°54'8 8.1
2015-Sep-03 18:33N 01°23' E 104°01'7 6.9
2015-Sep-03 17:32N 01°18' E 104°06'  
2015-Aug-30 12:23N 01°16' E 104°11'1315.9
2015-Aug-30 11:33N 01°14' E 103°58'1010.5
2015-Aug-30 10:33N 01°13' E 103°48'5 4.4
2015-Aug-30 09:28N 01°17' E 103°45'0 0.0
2015-Aug-30 08:28N 01°17' E 103°45'0 0.0
2015-Aug-30 07:28N 01°17' E 103°45'0 0.0
2015-Aug-30 06:31N 01°17' E 103°45'0 0.0
2015-Aug-30 05:31N 01°17' E 103°45'0 0.0
2015-Aug-30 04:31N 01°17' E 103°45'0 0.0
2015-Aug-30 03:28N 01°17' E 103°45'0 0.0
2015-Aug-30 02:31N 01°17' E 103°45'0 0.0
2015-Aug-30 01:28N 01°17' E 103°45'1 1.6
2015-Aug-30 00:33N 01°16' E 103°46'8 8.1
2015-Aug-29 23:33N 01°14' E 103°54'7 7.0
2015-Aug-29 22:33N 01°16' E 104°01'9 8.7
2015-Aug-29 21:33N 01°17' E 104°09'  
2015-Aug-26 09:31N 01°16' E 104°14'1515.8
2015-Aug-26 08:34N 01°14' E 103°59'1615.4
2015-Aug-26 07:33N 01°07' E 103°45'12415.5
2015-Aug-25 23:33N 02°08' E 101°57'5117.0
2015-Aug-25 20:33N 02°39' E 101°17'18 8.7
2015-Aug-25 18:31N 02°57' E 101°18'0 0.0
2015-Aug-25 17:28N 02°57' E 101°18'0 0.0
2015-Aug-25 13:31N 02°57' E 101°18'0 0.0
2015-Aug-25 11:31N 02°57' E 101°18'0 0.0
2015-Aug-25 08:22N 02°57' E 101°18'  
Track history (hours):
 
Tides and Currents Weather Stations Pressure Air Temp Water Temp Dewpoint Dewpoint Depression Visibility Wind Speed Wind Dir Waves Ship Positions

YM Initiative

Last reported at 2015-Sep-04 07:32 UTC. Time now 2015-Sep-04 07:53 UTC.
Position N 01°19' E 104°07'.

Length 173 m; draft 7.7 m.

Type: Cargo ship. MMSI: 635961368.

Date/timePositionNaut miles runAvg speedWind from/ knotsBaromVisibWave heightAir tempDewpointWater temp
2015-Sep-04 07:32N 01°19' E 104°07'4 3.7
2015-Sep-04 06:30N 01°21' E 104°03'6 6.7
2015-Sep-04 05:32N 01°23' E 103°57'5 3.9
2015-Sep-04 04:19N 01°26' E 103°54'0 0.1
2015-Sep-03 19:32N 01°26' E 103°54'8 8.1
2015-Sep-03 18:33N 01°23' E 104°01'7 6.9
2015-Sep-03 17:32N 01°18' E 104°06'  
2015-Aug-30 12:23N 01°16' E 104°11'1315.9
2015-Aug-30 11:33N 01°14' E 103°58'1010.5
2015-Aug-30 10:33N 01°13' E 103°48'5 4.4
2015-Aug-30 09:28N 01°17' E 103°45'0 0.0
2015-Aug-30 08:28N 01°17' E 103°45'0 0.0
2015-Aug-30 07:28N 01°17' E 103°45'0 0.0
2015-Aug-30 06:31N 01°17' E 103°45'0 0.0
2015-Aug-30 05:31N 01°17' E 103°45'0 0.0
2015-Aug-30 04:31N 01°17' E 103°45'0 0.0
2015-Aug-30 03:28N 01°17' E 103°45'0 0.0
2015-Aug-30 02:31N 01°17' E 103°45'0 0.0
2015-Aug-30 01:28N 01°17' E 103°45'1 1.6
2015-Aug-30 00:33N 01°16' E 103°46'8 8.1
2015-Aug-29 23:33N 01°14' E 103°54'7 7.0
2015-Aug-29 22:33N 01°16' E 104°01'9 8.7
2015-Aug-29 21:33N 01°17' E 104°09'  
2015-Aug-26 09:31N 01°16' E 104°14'1515.8
2015-Aug-26 08:34N 01°14' E 103°59'1615.4
2015-Aug-26 07:33N 01°07' E 103°45'12415.5
2015-Aug-25 23:33N 02°08' E 101°57'5117.0
2015-Aug-25 20:33N 02°39' E 101°17'18 8.7
2015-Aug-25 18:31N 02°57' E 101°18'0 0.0
2015-Aug-25 17:28N 02°57' E 101°18'0 0.0
2015-Aug-25 13:31N 02°57' E 101°18'0 0.0
2015-Aug-25 11:31N 02°57' E 101°18'0 0.0
2015-Aug-25 08:22N 02°57' E 101°18'  

Dump ship's entire track history